Time;durP1;ratioP1;P1;durP2;ratioP2;P2;SDS_P1;SDS_P2;PMS_P1;PMS_P2;Temp;Humidity;BMP_temperature;BMP_pressure;BME280_temperature;BME280_humidity;BME280_pressure;Samples;Min_cycle;Max_cycle;Signal;HPM_P1;HPM_P2
2023/08/12 00:01:55;;;;;;;6.35;3.92;;;19.90;94.60;;;;;;4994619;28;20038;-91
2023/08/12 00:04:21;;;;;;;13.70;3.95;;;19.90;94.60;;;;;;4994607;28;20030;-90
2023/08/12 00:06:46;;;;;;;12.80;4.15;;;19.90;94.70;;;;;;4994989;28;20069;-91
2023/08/12 00:09:12;;;;;;;8.20;4.25;;;19.90;94.70;;;;;;4994595;28;20467;-90
2023/08/12 00:11:38;;;;;;;6.03;3.60;;;19.80;94.60;;;;;;5003550;28;20165;-90
2023/08/12 00:14:04;;;;;;;7.03;3.85;;;19.90;94.70;;;;;;4996531;28;20026;-91
2023/08/12 00:16:30;;;;;;;7.82;3.72;;;19.90;94.70;;;;;;4995582;28;20498;-91
2023/08/12 00:19:01;;;;;;;7.13;3.85;;;19.90;94.60;;;;;;4996993;28;20022;-90
2023/08/12 00:21:27;;;;;;;13.43;3.42;;;19.90;94.60;;;;;;4996690;28;20035;-90
2023/08/12 00:23:55;;;;;;;7.63;3.58;;;19.90;94.80;;;;;;4995975;28;20033;-90
2023/08/12 00:26:23;;;;;;;5.80;3.67;;;19.80;94.70;;;;;;4995122;28;20030;-89
2023/08/12 00:28:52;;;;;;;11.82;4.05;;;19.80;94.70;;;;;;4996240;28;20023;-90
2023/08/12 00:31:18;;;;;;;11.43;4.03;;;19.90;94.70;;;;;;4996148;28;20487;-90
2023/08/12 00:33:47;;;;;;;10.02;3.60;;;19.90;94.70;;;;;;4995098;28;20106;-89
2023/08/12 00:36:12;;;;;;;10.57;3.47;;;19.90;94.70;;;;;;5006688;28;20026;-89
2023/08/12 00:38:41;;;;;;;7.45;3.28;;;19.80;94.70;;;;;;4996595;28;20725;-90
2023/08/12 00:41:06;;;;;;;8.40;2.95;;;19.80;94.70;;;;;;4991495;28;20027;-90
2023/08/12 00:43:32;;;;;;;7.55;3.30;;;19.90;94.70;;;;;;5004062;28;20030;-90
2023/08/12 00:46:03;;;;;;;12.20;3.35;;;19.80;94.70;;;;;;4994990;28;20076;-90
2023/08/12 00:48:29;;;;;;;11.35;3.50;;;19.90;94.80;;;;;;4993685;28;20030;-91
2023/08/12 00:50:58;;;;;;;9.02;3.53;;;19.80;94.70;;;;;;4977823;28;20057;-90
2023/08/12 00:53:24;;;;;;;6.55;3.63;;;19.80;94.70;;;;;;4992938;28;20038;-90
2023/08/12 00:55:49;;;;;;;13.45;3.80;;;19.80;94.70;;;;;;4998059;28;20170;-90
2023/08/12 00:58:16;;;;;;;9.07;4.30;;;19.80;94.70;;;;;;4993948;28;20479;-90
2023/08/12 01:00:42;;;;;;;11.43;3.78;;;19.80;94.70;;;;;;4992972;28;20027;-90
2023/08/12 01:03:11;;;;;;;10.82;3.70;;;19.90;94.70;;;;;;4993053;28;20030;-90
2023/08/12 01:05:37;;;;;;;13.73;4.45;;;19.80;94.70;;;;;;5001748;28;20018;-90
2023/08/12 01:08:03;;;;;;;8.38;3.78;;;19.80;95.00;;;;;;4993431;28;20399;-89
2023/08/12 01:10:35;;;;;;;5.90;3.30;;;19.80;94.70;;;;;;4992887;28;20031;-86
2023/08/12 01:13:24;;;;;;;11.05;3.75;;;19.80;94.70;;;;;;4994314;28;20113;-90
2023/08/12 01:15:53;;;;;;;8.07;4.05;;;19.80;94.70;;;;;;4992135;28;20044;-90
2023/08/12 01:18:24;;;;;;;15.68;3.63;;;19.80;94.70;;;;;;4994592;28;20029;-90
2023/08/12 01:20:49;;;;;;;;;;;19.80;94.70;;;;;;4995809;28;20040;-90
2023/08/12 01:23:20;;;;;;;6.82;3.97;;;19.80;94.70;;;;;;4994729;28;19906;-89
2023/08/12 01:25:46;;;;;;;9.70;3.88;;;19.80;94.70;;;;;;4993937;28;20065;-88
2023/08/12 01:28:12;;;;;;;9.10;4.18;;;19.80;94.70;;;;;;4991014;28;20026;-89
2023/08/12 01:30:56;;;;;;;11.60;3.92;;;19.80;94.70;;;;;;4992894;28;20024;-89
2023/08/12 01:33:33;;;;;;;11.82;3.95;;;19.80;94.70;;;;;;4990795;28;20072;-89
2023/08/12 01:36:13;;;;;;;7.97;3.60;;;19.80;94.70;;;;;;4992875;28;20387;-90
2023/08/12 01:38:44;;;;;;;8.37;4.53;;;19.80;94.70;;;;;;4990661;28;20026;-89
2023/08/12 01:41:12;;;;;;;13.38;4.35;;;19.80;94.70;;;;;;4993144;28;20046;-90
2023/08/12 01:43:39;;;;;;;13.35;4.15;;;19.80;94.70;;;;;;4992639;28;20022;-89
2023/08/12 01:46:04;;;;;;;9.55;3.80;;;19.70;94.70;;;;;;4993923;28;20029;-90
2023/08/12 01:48:30;;;;;;;9.80;4.47;;;19.80;94.70;;;;;;4999319;28;20026;-88
2023/08/12 01:50:58;;;;;;;9.55;4.13;;;19.80;94.70;;;;;;4995187;28;20026;-90
2023/08/12 01:53:24;;;;;;;9.57;4.20;;;19.80;94.70;;;;;;4992364;28;20018;-90
2023/08/12 01:55:52;;;;;;;9.60;4.18;;;19.80;94.70;;;;;;4992510;28;20391;-90
2023/08/12 01:58:18;;;;;;;11.35;4.20;;;19.80;94.80;;;;;;4991478;28;20080;-90
2023/08/12 02:00:43;;;;;;;6.40;3.92;;;19.80;94.80;;;;;;4991799;28;20109;-90
2023/08/12 02:03:09;;;;;;;14.35;3.97;;;19.80;94.70;;;;;;4991424;28;20062;-90
2023/08/12 02:05:37;;;;;;;7.53;3.72;;;19.80;94.80;;;;;;4991711;28;20018;-90
2023/08/12 02:08:03;;;;;;;11.93;4.97;;;19.70;94.70;;;;;;5007927;28;20019;-90
2023/08/12 02:10:29;;;;;;;7.53;3.85;;;19.80;94.80;;;;;;4990882;28;20019;-89
2023/08/12 02:12:54;;;;;;;14.60;3.90;;;19.70;94.80;;;;;;4991802;28;20030;-90
2023/08/12 02:15:20;;;;;;;8.60;3.75;;;19.80;94.80;;;;;;4991920;28;20092;-91
2023/08/12 02:17:45;;;;;;;8.88;3.75;;;19.80;94.80;;;;;;4991598;28;20113;-90
2023/08/12 02:20:11;;;;;;;10.48;4.22;;;19.80;94.80;;;;;;4991272;28;20018;-89
2023/08/12 02:22:37;;;;;;;6.85;3.72;;;19.80;94.80;;;;;;4992172;28;20026;-90
2023/08/12 02:25:03;;;;;;;9.88;3.90;;;19.70;94.80;;;;;;4992751;28;20093;-90
2023/08/12 02:27:28;;;;;;;10.15;4.28;;;19.70;94.80;;;;;;4991411;28;20439;-88
2023/08/12 02:29:54;;;;;;;10.13;4.28;;;19.70;94.80;;;;;;4991343;28;20022;-91
2023/08/12 02:32:19;;;;;;;11.45;4.20;;;19.70;94.80;;;;;;4993077;28;20058;-91
2023/08/12 02:34:45;;;;;;;6.70;3.50;;;19.80;94.90;;;;;;4990921;28;20022;-89
2023/08/12 02:37:12;;;;;;;6.20;3.42;;;19.70;94.80;;;;;;4992653;28;20072;-89
2023/08/12 02:39:38;;;;;;;15.55;3.72;;;19.70;94.80;;;;;;4993446;28;20022;-89
2023/08/12 02:42:04;;;;;;;6.95;3.78;;;19.70;94.80;;;;;;4989050;28;20047;-90
2023/08/12 02:44:29;;;;;;;6.80;4.20;;;19.70;94.80;;;;;;5008734;28;20022;-90
2023/08/12 02:46:55;;;;;;;8.15;3.65;;;19.70;94.80;;;;;;4994143;28;20368;-91
2023/08/12 02:49:20;;;;;;;13.80;4.05;;;19.70;94.80;;;;;;5008094;28;20069;-89
2023/08/12 02:51:46;;;;;;;6.50;3.45;;;19.70;94.80;;;;;;5004782;28;20037;-90
2023/08/12 02:54:12;;;;;;;13.60;4.10;;;19.70;94.80;;;;;;5002358;28;20130;-90
2023/08/12 02:56:37;;;;;;;9.43;4.30;;;19.70;94.80;;;;;;4992885;28;20049;-90
2023/08/12 02:59:03;;;;;;;9.52;4.20;;;19.70;94.90;;;;;;4992913;28;20042;-91
2023/08/12 03:01:29;;;;;;;7.47;3.88;;;19.70;94.90;;;;;;4992363;28;20034;-89
2023/08/12 03:03:55;;;;;;;6.53;4.10;;;19.70;94.90;;;;;;5000737;28;20041;-90
2023/08/12 03:06:21;;;;;;;9.73;3.65;;;19.70;94.90;;;;;;4988555;28;20483;-90
2023/08/12 03:08:46;;;;;;;8.68;3.72;;;19.70;94.90;;;;;;5007124;28;20133;-88
2023/08/12 03:11:12;;;;;;;8.10;4.22;;;19.70;94.90;;;;;;4988094;28;20030;-91
2023/08/12 03:13:38;;;;;;;10.85;3.72;;;19.70;94.90;;;;;;4993007;28;20631;-90
2023/08/12 03:16:03;;;;;;;5.82;4.03;;;19.70;94.90;;;;;;4991076;28;20030;-89
2023/08/12 03:18:29;;;;;;;11.15;3.65;;;19.70;94.90;;;;;;4993149;28;20027;-89
2023/08/12 03:20:54;;;;;;;15.55;4.40;;;19.70;94.90;;;;;;4992861;28;20486;-90
2023/08/12 03:23:20;;;;;;;8.48;3.78;;;19.70;94.90;;;;;;4994011;28;20176;-89
2023/08/12 03:25:49;;;;;;;6.90;3.90;;;19.70;94.90;;;;;;5003623;28;20081;-90
2023/08/12 03:28:14;;;;;;;11.25;4.55;;;19.70;94.90;;;;;;4996422;28;20031;-90
2023/08/12 03:30:40;;;;;;;9.77;4.18;;;19.70;94.90;;;;;;4992496;28;20494;-90
2023/08/12 03:33:05;;;;;;;12.68;4.78;;;19.70;94.90;;;;;;5008015;28;20033;-89
2023/08/12 03:35:31;;;;;;;6.25;3.88;;;19.70;94.90;;;;;;4995306;28;20156;-90
2023/08/12 03:37:57;;;;;;;8.52;3.95;;;19.70;94.90;;;;;;4994483;28;20030;-90
2023/08/12 03:40:22;;;;;;;10.48;4.65;;;19.70;94.90;;;;;;4996155;28;20027;-89
2023/08/12 03:42:48;;;;;;;7.47;3.90;;;19.60;94.90;;;;;;4998748;28;20469;-90
2023/08/12 03:45:13;;;;;;;9.23;4.05;;;19.70;94.90;;;;;;5003501;28;20077;-91
2023/08/12 03:47:39;;;;;;;9.65;3.75;;;19.70;94.90;;;;;;4995157;28;20027;-90
2023/08/12 03:50:06;;;;;;;9.13;4.22;;;19.70;94.90;;;;;;4994633;28;20107;-90
2023/08/12 03:52:32;;;;;;;14.27;3.97;;;19.70;94.90;;;;;;4994798;28;20054;-90
2023/08/12 03:54:57;;;;;;;5.20;3.70;;;19.70;94.90;;;;;;5002574;28;20502;-91
2023/08/12 03:57:23;;;;;;;6.35;3.80;;;19.60;94.90;;;;;;4995106;28;20497;-89
2023/08/12 03:59:48;;;;;;;10.25;4.28;;;19.70;94.90;;;;;;4995567;28;20022;-91
2023/08/12 04:02:14;;;;;;;7.15;3.60;;;19.70;94.90;;;;;;4995233;28;20034;-89
2023/08/12 04:04:40;;;;;;;9.77;4.18;;;19.70;94.90;;;;;;5004775;28;20023;-90
2023/08/12 04:07:06;;;;;;;11.18;4.25;;;19.70;94.90;;;;;;4995689;28;20025;-90
2023/08/12 04:09:31;;;;;;;17.45;4.68;;;19.70;94.90;;;;;;4993843;28;20022;-90
2023/08/12 04:11:57;;;;;;;7.88;3.65;;;19.60;94.90;;;;;;4994187;28;20030;-90
2023/08/12 04:14:23;;;;;;;9.95;3.95;;;19.60;94.90;;;;;;5003095;28;20125;-90
2023/08/12 04:16:48;;;;;;;4.85;3.53;;;19.60;94.90;;;;;;4994188;28;20122;-89
2023/08/12 04:19:14;;;;;;;8.80;4.13;;;19.60;94.90;;;;;;4995235;28;20038;-91
2023/08/12 04:21:40;;;;;;;8.25;4.18;;;19.60;94.90;;;;;;4976726;28;20460;-88
2023/08/12 04:24:07;;;;;;;6.38;3.97;;;19.60;94.90;;;;;;4998431;28;20109;-90
2023/08/12 04:26:32;;;;;;;7.32;3.70;;;19.60;94.90;;;;;;5002759;28;20045;-90
2023/08/12 04:28:58;;;;;;;8.82;4.13;;;19.60;94.90;;;;;;4993674;28;20069;-90
2023/08/12 04:31:23;;;;;;;9.00;4.03;;;19.60;94.80;;;;;;4995325;28;20030;-90
2023/08/12 04:33:52;;;;;;;5.22;3.58;;;19.60;94.80;;;;;;4992418;28;20022;-90
2023/08/12 04:36:18;;;;;;;8.35;4.40;;;19.60;94.90;;;;;;4995002;28;20030;-90
2023/08/12 04:38:43;;;;;;;8.98;3.78;;;19.60;94.80;;;;;;4994775;28;20137;-90
2023/08/12 04:41:09;;;;;;;5.32;3.53;;;19.60;94.80;;;;;;4994676;28;20054;-90
2023/08/12 04:43:34;;;;;;;10.48;4.13;;;19.60;94.80;;;;;;4994888;28;20057;-90
2023/08/12 04:46:00;;;;;;;7.45;4.35;;;19.60;94.90;;;;;;4996612;28;20023;-90
2023/08/12 04:48:27;;;;;;;6.78;3.70;;;19.60;94.90;;;;;;4996333;28;20033;-90
2023/08/12 04:50:53;;;;;;;7.80;4.60;;;19.60;94.90;;;;;;5001863;28;20019;-90
2023/08/12 04:53:18;;;;;;;15.43;4.53;;;19.60;94.90;;;;;;4990190;28;20085;-90
2023/08/12 04:55:44;;;;;;;12.77;4.00;;;19.60;94.90;;;;;;4994809;28;20014;-88
2023/08/12 04:58:09;;;;;;;10.38;3.75;;;19.60;94.90;;;;;;4993388;28;20185;-89
2023/08/12 05:00:35;;;;;;;6.80;3.88;;;19.60;94.90;;;;;;4993418;28;20038;-88
2023/08/12 05:03:00;;;;;;;7.05;3.83;;;19.60;94.90;;;;;;4994101;28;20061;-88
2023/08/12 05:05:26;;;;;;;9.25;3.88;;;19.60;94.90;;;;;;4993990;28;20015;-88
2023/08/12 05:07:52;;;;;;;7.47;3.80;;;19.60;94.90;;;;;;4993089;28;20116;-89
2023/08/12 05:10:18;;;;;;;11.75;3.70;;;19.60;94.90;;;;;;4993786;28;20026;-90
2023/08/12 05:12:44;;;;;;;13.00;4.25;;;19.60;95.00;;;;;;5001647;28;20027;-89
2023/08/12 05:15:10;;;;;;;8.00;3.38;;;19.60;94.90;;;;;;4984997;28;20073;-89
2023/08/12 05:17:37;;;;;;;7.20;3.92;;;19.60;94.90;;;;;;5000290;28;20031;-90
2023/08/12 05:20:03;;;;;;;24.15;4.18;;;19.60;95.00;;;;;;4997086;28;20030;-89
2023/08/12 05:22:29;;;;;;;5.70;3.45;;;19.60;95.00;;;;;;4993991;28;20044;-88
2023/08/12 05:24:54;;;;;;;8.57;3.55;;;19.60;95.00;;;;;;4994425;28;20105;-89
2023/08/12 05:27:20;;;;;;;8.50;4.57;;;19.60;95.00;;;;;;4993082;28;20018;-88
2023/08/12 05:29:45;;;;;;;5.80;3.50;;;19.60;95.00;;;;;;4993864;28;20022;-89
2023/08/12 05:32:11;;;;;;;7.30;3.75;;;19.60;95.00;;;;;;4993869;28;20502;-88
2023/08/12 05:34:36;;;;;;;7.35;3.85;;;19.60;95.00;;;;;;4993758;28;20023;-90
2023/08/12 05:37:02;;;;;;;6.05;3.15;;;19.60;95.10;;;;;;4994329;28;20033;-89
2023/08/12 05:39:28;;;;;;;8.40;4.20;;;19.60;95.10;;;;;;4992493;28;20022;-89
2023/08/12 05:41:53;;;;;;;10.02;3.72;;;19.60;95.10;;;;;;4994660;28;20491;-89
2023/08/12 05:44:19;;;;;;;10.18;3.97;;;19.60;95.10;;;;;;4991446;28;20018;-89
2023/08/12 05:46:44;;;;;;;9.38;4.45;;;19.60;95.10;;;;;;4993039;28;20026;-90
2023/08/12 05:49:11;;;;;;;11.07;3.75;;;19.60;95.20;;;;;;4992976;28;20026;-89
2023/08/12 05:51:38;;;;;;;6.78;4.47;;;19.60;95.20;;;;;;4992216;28;20022;-88
2023/08/12 05:54:04;;;;;;;15.45;4.70;;;19.60;95.20;;;;;;4995832;28;20037;-88
2023/08/12 05:56:29;;;;;;;10.20;4.22;;;19.60;95.20;;;;;;4992073;28;20072;-88
2023/08/12 05:58:55;;;;;;;11.40;4.20;;;19.60;95.20;;;;;;4992358;28;20474;-87
2023/08/12 06:01:21;;;;;;;11.32;3.67;;;19.60;95.20;;;;;;4991066;28;20027;-89
2023/08/12 06:03:47;;;;;;;11.15;4.00;;;19.60;95.20;;;;;;4991747;28;20026;-89
2023/08/12 06:06:12;;;;;;;9.57;4.50;;;19.60;95.30;;;;;;4992331;28;20045;-90
2023/08/12 06:08:38;;;;;;;8.13;3.55;;;19.60;95.30;;;;;;4992846;28;20034;-90
2023/08/12 06:11:03;;;;;;;14.07;4.55;;;19.60;95.30;;;;;;4993081;28;20022;-89
2023/08/12 06:13:29;;;;;;;12.18;3.85;;;19.60;95.40;;;;;;4993307;28;20023;-89
2023/08/12 06:15:55;;;;;;;6.65;3.80;;;19.60;95.40;;;;;;4993938;28;20096;-89
2023/08/12 06:18:20;;;;;;;6.38;4.20;;;19.60;95.40;;;;;;4993223;28;20493;-88
2023/08/12 06:20:46;;;;;;;7.93;3.92;;;19.60;95.40;;;;;;4992992;28;20080;-89
2023/08/12 06:23:11;;;;;;;8.55;4.22;;;19.60;95.40;;;;;;4993152;28;20770;-88
2023/08/12 06:25:37;;;;;;;8.80;4.25;;;19.60;95.40;;;;;;4991925;28;20497;-88
2023/08/12 06:28:04;;;;;;;8.23;3.97;;;19.60;95.40;;;;;;5000264;28;20022;-90
2023/08/12 06:30:30;;;;;;;8.25;3.83;;;19.60;95.50;;;;;;4990755;28;20023;-89
2023/08/12 06:32:56;;;;;;;6.90;3.83;;;19.60;95.50;;;;;;4994447;28;20073;-89
2023/08/12 06:35:21;;;;;;;5.60;3.33;;;19.60;95.50;;;;;;4992451;28;20053;-87
2023/08/12 06:37:47;;;;;;;7.38;3.80;;;19.60;95.60;;;;;;4992336;28;20072;-88
2023/08/12 06:40:12;;;;;;;5.90;3.88;;;19.60;96.20;;;;;;4992512;28;20073;-89
2023/08/12 06:42:38;;;;;;;5.82;3.88;;;19.60;96.70;;;;;;4995805;28;20033;-88
2023/08/12 06:45:04;;;;;;;12.95;4.20;;;19.50;96.90;;;;;;4992509;28;20097;-87
2023/08/12 06:47:30;;;;;;;21.23;4.93;;;19.50;97.20;;;;;;4989306;28;20022;-86
2023/08/12 06:49:55;;;;;;;6.88;4.40;;;19.50;97.30;;;;;;4992072;28;20038;-87
2023/08/12 06:52:21;;;;;;;7.28;4.13;;;19.50;97.30;;;;;;4991195;28;20110;-87
2023/08/12 06:54:47;;;;;;;9.88;4.50;;;19.50;97.40;;;;;;4991484;28;20423;-88
2023/08/12 06:57:12;;;;;;;8.18;4.15;;;19.50;97.60;;;;;;4989579;28;20023;-89
2023/08/12 06:59:38;;;;;;;11.43;5.75;;;19.60;97.40;;;;;;4991509;28;20018;-88
2023/08/12 07:02:05;;;;;;;13.10;4.68;;;19.60;97.40;;;;;;4993073;28;20537;-88
2023/08/12 07:04:30;;;;;;;10.75;5.05;;;19.60;97.60;;;;;;4991878;28;20100;-86
2023/08/12 07:06:56;;;;;;;13.10;6.47;;;19.60;98.00;;;;;;4993514;28;20026;-87
2023/08/12 07:09:22;;;;;;;7.75;5.00;;;19.50;97.90;;;;;;4993601;28;20124;-87
2023/08/12 07:11:47;;;;;;;11.07;6.30;;;19.60;97.70;;;;;;4991946;28;20030;-88
2023/08/12 07:14:13;;;;;;;13.90;6.15;;;19.50;97.70;;;;;;4993618;28;20033;-88
2023/08/12 07:16:39;;;;;;;13.02;6.20;;;19.50;97.60;;;;;;4992620;28;20030;-87
2023/08/12 07:19:04;;;;;;;10.20;5.88;;;19.50;97.60;;;;;;4992547;28;20023;-88
2023/08/12 07:21:30;;;;;;;11.52;5.03;;;19.50;97.70;;;;;;4993308;28;20093;-87
2023/08/12 07:23:55;;;;;;;9.00;6.25;;;19.60;98.10;;;;;;4992344;28;20034;-85
2023/08/12 07:26:21;;;;;;;10.50;7.18;;;19.60;97.90;;;;;;4993823;28;20105;-88
2023/08/12 07:28:47;;;;;;;11.30;6.47;;;19.60;97.80;;;;;;4992421;28;20033;-88
2023/08/12 07:31:13;;;;;;;11.10;6.97;;;19.60;97.90;;;;;;4993514;28;20027;-88
2023/08/12 07:33:39;;;;;;;11.63;6.50;;;19.70;97.70;;;;;;4993364;28;20022;-87
2023/08/12 07:36:04;;;;;;;14.20;6.57;;;19.70;97.70;;;;;;4992653;28;20033;-88
2023/08/12 07:38:30;;;;;;;7.50;5.32;;;19.70;97.80;;;;;;4992854;28;20029;-88
2023/08/12 07:40:56;;;;;;;13.07;6.15;;;19.80;97.90;;;;;;4993103;28;20029;-86
2023/08/12 07:43:21;;;;;;;9.13;5.75;;;19.80;98.00;;;;;;4993426;28;20430;-88
2023/08/12 07:45:54;;;;;;;10.20;6.65;;;19.90;98.40;;;;;;4992933;28;20023;-88
2023/08/12 07:48:22;;;;;;;10.20;5.05;;;20.00;99.10;;;;;;4992325;28;20073;-88
2023/08/12 07:50:56;;;;;;;11.32;6.00;;;20.00;98.80;;;;;;4991681;28;20018;-89
2023/08/12 07:53:21;;;;;;;16.48;6.85;;;20.00;99.40;;;;;;4993169;28;20018;-88
2023/08/12 07:55:47;;;;;;;11.05;5.63;;;19.90;99.00;;;;;;4992885;28;20023;-89
2023/08/12 07:58:12;;;;;;;11.27;7.40;;;19.90;99.10;;;;;;4987905;28;20029;-88
2023/08/12 08:00:39;;;;;;;11.68;5.78;;;19.90;99.50;;;;;;4991846;28;20026;-88
2023/08/12 08:03:05;;;;;;;12.98;7.82;;;19.90;99.50;;;;;;4992262;28;20088;-86
2023/08/12 08:05:30;;;;;;;15.13;7.25;;;19.90;99.80;;;;;;5000582;28;20038;-86
2023/08/12 08:07:56;;;;;;;13.57;8.88;;;20.00;99.90;;;;;;4999747;28;20059;-88
2023/08/12 08:10:22;;;;;;;21.55;8.80;;;20.00;99.90;;;;;;4993421;28;20027;-88
2023/08/12 08:12:47;;;;;;;11.32;6.50;;;20.10;99.90;;;;;;4996709;28;20370;-88
2023/08/12 08:15:13;;;;;;;21.25;6.35;;;20.20;99.90;;;;;;5005679;28;20028;-89
2023/08/12 08:17:38;;;;;;;14.10;5.85;;;20.20;99.90;;;;;;4996513;28;20106;-88
2023/08/12 08:20:05;;;;;;;10.60;6.68;;;20.30;99.90;;;;;;4995195;28;20027;-89
2023/08/12 08:22:31;;;;;;;14.98;5.72;;;20.30;99.90;;;;;;4994522;28;20395;-87
2023/08/12 08:24:57;;;;;;;11.98;6.85;;;20.30;99.90;;;;;;4996177;28;20026;-88
2023/08/12 08:27:22;;;;;;;17.00;5.85;;;20.30;99.90;;;;;;5004297;28;20483;-88
2023/08/12 08:29:48;;;;;;;8.57;5.25;;;20.30;99.90;;;;;;4996372;28;20022;-88
2023/08/12 08:32:13;;;;;;;11.88;6.30;;;20.40;99.90;;;;;;4996203;28;20382;-87
2023/08/12 08:34:39;;;;;;;9.77;5.35;;;20.40;99.90;;;;;;4995275;28;20550;-89
2023/08/12 08:37:04;;;;;;;10.07;5.82;;;20.50;99.90;;;;;;4994651;28;20026;-88
2023/08/12 08:39:30;;;;;;;10.02;5.78;;;20.50;99.90;;;;;;4993941;28;20062;-87
2023/08/12 08:41:58;;;;;;;11.40;6.22;;;20.60;99.90;;;;;;4994627;28;20085;-88
2023/08/12 08:44:26;;;;;;;9.20;5.75;;;20.60;99.90;;;;;;4995854;28;20049;-89
2023/08/12 08:46:55;;;;;;;10.82;7.35;;;20.70;99.90;;;;;;4994410;28;20031;-88
2023/08/12 08:49:22;;;;;;;12.93;8.50;;;20.70;99.90;;;;;;4993717;28;20590;-89
2023/08/12 08:51:49;;;;;;;12.40;5.72;;;20.60;99.90;;;;;;4994408;28;20022;-90
2023/08/12 08:54:15;;;;;;;10.82;6.13;;;20.70;99.90;;;;;;4994492;28;20033;-91
2023/08/12 08:56:41;;;;;;;12.63;4.88;;;20.80;99.90;;;;;;4993287;28;20014;-89
2023/08/12 08:59:07;;;;;;;8.10;5.15;;;20.80;99.90;;;;;;4993735;28;20030;-89
2023/08/12 09:01:35;;;;;;;12.23;5.88;;;20.90;99.90;;;;;;4994773;28;20060;-88
2023/08/12 09:04:03;;;;;;;6.97;5.10;;;20.90;99.90;;;;;;4993817;28;20463;-88
2023/08/12 09:06:30;;;;;;;12.25;4.53;;;21.00;99.90;;;;;;5001156;28;20026;-87
2023/08/12 09:08:56;;;;;;;14.45;4.82;;;21.00;99.90;;;;;;4993941;28;20019;-90
2023/08/12 09:11:22;;;;;;;6.60;5.07;;;21.00;99.90;;;;;;4988905;28;20383;-89
2023/08/12 09:13:48;;;;;;;6.97;4.35;;;20.90;99.90;;;;;;4993375;28;20022;-89
2023/08/12 09:16:15;;;;;;;5.72;3.95;;;20.90;99.90;;;;;;4993071;28;20031;-88
2023/08/12 09:18:43;;;;;;;6.55;4.53;;;20.80;99.90;;;;;;4993209;28;20045;-87
2023/08/12 09:21:09;;;;;;;8.57;4.65;;;21.00;99.90;;;;;;4993679;28;20498;-88
2023/08/12 09:23:39;;;;;;;8.27;4.15;;;21.10;99.90;;;;;;4993880;28;20061;-82
2023/08/12 09:26:17;;;;;;;;;;;21.20;99.90;;;;;;4994799;28;20097;-81
2023/08/12 09:28:43;;;;;;;9.25;4.30;;;21.20;99.90;;;;;;4987227;28;19905;-81
2023/08/12 09:31:26;;;;;;;6.43;3.58;;;21.20;99.90;;;;;;4994548;28;20023;-82
2023/08/12 09:33:52;;;;;;;5.15;3.67;;;21.40;99.90;;;;;;4994262;28;20114;-81
2023/08/12 09:36:18;;;;;;;11.63;4.10;;;21.40;99.90;;;;;;4994057;28;20057;-82
2023/08/12 09:38:45;;;;;;;9.32;3.80;;;21.30;99.90;;;;;;4989684;28;20026;-81
2023/08/12 09:41:10;;;;;;;7.40;3.95;;;21.30;99.90;;;;;;4990460;28;20026;-82
2023/08/12 09:43:41;;;;;;;10.15;3.58;;;21.40;99.90;;;;;;5005234;28;20479;-81
2023/08/12 09:46:10;;;;;;;4.45;3.22;;;21.40;99.90;;;;;;4989627;28;20102;-80
2023/08/12 09:48:35;;;;;;;5.47;3.50;;;21.60;99.50;;;;;;4991459;28;20030;-80
2023/08/12 09:51:01;;;;;;;5.78;3.45;;;21.50;99.80;;;;;;4990988;28;20485;-81
2023/08/12 09:53:27;;;;;;;4.47;3.00;;;21.30;99.90;;;;;;4987747;28;20451;-80
2023/08/12 09:55:54;;;;;;;7.20;3.72;;;21.00;99.90;;;;;;4987260;28;20040;-79
2023/08/12 09:58:24;;;;;;;5.57;3.50;;;20.80;99.90;;;;;;4990201;28;20023;-81
2023/08/12 10:00:51;;;;;;;7.10;3.58;;;20.70;99.90;;;;;;4990681;28;20733;-81
2023/08/12 10:03:19;;;;;;;11.93;4.40;;;20.70;99.90;;;;;;4989937;28;20030;-81
2023/08/12 10:05:48;;;;;;;10.55;3.75;;;20.60;99.90;;;;;;4992415;28;20018;-80
2023/08/12 10:08:14;;;;;;;14.25;3.72;;;20.60;99.90;;;;;;4993016;28;20033;-80
2023/08/12 10:10:42;;;;;;;4.95;3.33;;;20.50;99.90;;;;;;4993350;28;20046;-79
2023/08/12 10:13:09;;;;;;;5.25;3.25;;;20.50;99.90;;;;;;4990131;28;20026;-80
2023/08/12 10:15:36;;;;;;;10.35;3.40;;;20.50;99.90;;;;;;4992885;28;20058;-79
2023/08/12 10:18:03;;;;;;;5.50;3.70;;;20.40;99.90;;;;;;4993149;28;20019;-80
2023/08/12 10:20:31;;;;;;;7.88;4.43;;;20.40;99.90;;;;;;4991254;28;20062;-80
2023/08/12 10:22:57;;;;;;;7.05;3.42;;;20.40;99.90;;;;;;4990416;28;20023;-79
2023/08/12 10:25:31;;;;;;;11.25;4.22;;;20.40;99.90;;;;;;4990716;28;20026;-80
2023/08/12 10:27:56;;;;;;;5.55;3.50;;;20.40;99.90;;;;;;4986730;28;20029;-80
2023/08/12 10:30:22;;;;;;;8.73;3.40;;;20.40;99.90;;;;;;4993689;28;20027;-80
2023/08/12 10:32:47;;;;;;;11.95;3.72;;;20.40;99.90;;;;;;4989447;28;20562;-80
2023/08/12 10:35:13;;;;;;;9.98;3.17;;;20.40;99.90;;;;;;4992334;28;20023;-80
2023/08/12 10:37:59;;;;;;;6.80;3.10;;;20.40;99.90;;;;;;4990535;28;20038;-80
2023/08/12 10:40:26;;;;;;;5.47;3.30;;;20.40;99.90;;;;;;4991423;28;20027;-80
2023/08/12 10:42:52;;;;;;;5.28;3.17;;;20.40;99.90;;;;;;4990272;28;20030;-81
2023/08/12 10:45:50;;;;;;;4.15;1.98;;;20.40;99.90;;;;;;4989847;28;20026;-80
2023/08/12 10:48:44;;;;;;;5.53;3.28;;;20.40;99.90;;;;;;4990940;28;20105;-81
2023/08/12 10:51:38;;;;;;;3.45;2.50;;;20.40;99.80;;;;;;4998105;28;20026;-81
2023/08/12 10:54:31;;;;;;;5.45;2.92;;;20.50;99.90;;;;;;5007600;28;20035;-80
2023/08/12 10:57:16;;;;;;;5.43;2.90;;;20.40;99.80;;;;;;4997047;28;20027;-80
2023/08/12 10:59:47;;;;;;;4.72;3.35;;;20.40;99.80;;;;;;4972739;28;20031;-81
2023/08/12 11:02:36;;;;;;;4.47;3.17;;;20.30;99.80;;;;;;4991556;28;20450;-80
2023/08/12 11:05:06;;;;;;;9.13;3.05;;;20.30;99.80;;;;;;4988483;28;20479;-80
2023/08/12 11:08:03;;;;;;;12.50;3.42;;;20.30;99.80;;;;;;4989708;28;20027;-80
2023/08/12 11:10:33;;;;;;;7.93;3.65;;;20.40;99.70;;;;;;4989062;28;20121;-80
2023/08/12 11:13:03;;;;;;;7.38;3.03;;;20.40;99.70;;;;;;4989709;28;20113;-81
2023/08/12 11:15:41;;;;;;;3.65;2.65;;;20.40;99.80;;;;;;4984494;28;20559;-81
2023/08/12 11:18:31;;;;;;;5.38;3.00;;;20.40;99.70;;;;;;4988846;28;20133;-80
2023/08/12 11:20:58;;;;;;;11.20;3.03;;;20.40;99.80;;;;;;4994840;28;20042;-81
2023/08/12 11:23:26;;;;;;;10.98;3.00;;;20.40;99.90;;;;;;4995340;28;20080;-79
2023/08/12 11:25:58;;;;;;;6.82;3.03;;;20.60;99.80;;;;;;4988336;28;20034;-80
2023/08/12 11:28:33;;;;;;;4.47;2.90;;;20.30;99.60;;;;;;4991036;28;20022;-80
2023/08/12 11:31:04;;;;;;;2.75;2.40;;;20.30;99.60;;;;;;4997518;28;20022;-80
2023/08/12 11:33:47;;;;;;;4.50;3.10;;;20.30;99.60;;;;;;4985142;28;20022;-81
2023/08/12 11:36:17;;;;;;;4.90;3.03;;;20.30;99.60;;;;;;4989702;28;20026;-81
2023/08/12 11:38:43;;;;;;;3.65;2.90;;;20.30;99.60;;;;;;4989149;28;20030;-81
2023/08/12 11:41:08;;;;;;;7.80;3.22;;;20.30;99.50;;;;;;4987663;28;20383;-81
2023/08/12 11:43:34;;;;;;;6.30;3.47;;;20.30;99.60;;;;;;4990741;28;20034;-81
2023/08/12 11:46:00;;;;;;;6.45;2.42;;;20.30;99.50;;;;;;4992073;28;20026;-81
2023/08/12 11:48:27;;;;;;;4.38;3.00;;;20.40;99.60;;;;;;4992737;28;20486;-80
2023/08/12 11:50:57;;;;;;;7.38;2.90;;;20.40;99.50;;;;;;5001237;28;20022;-81
2023/08/12 11:53:23;;;;;;;4.30;3.10;;;20.40;99.60;;;;;;4993022;28;20030;-81
2023/08/12 11:55:49;;;;;;;4.97;3.22;;;20.40;99.60;;;;;;4991165;28;20042;-82
2023/08/12 11:58:18;;;;;;;4.80;3.38;;;20.40;99.70;;;;;;4991237;28;20031;-81
2023/08/12 12:00:46;;;;;;;9.25;3.55;;;20.40;99.50;;;;;;4991293;28;20027;-81
2023/08/12 12:03:12;;;;;;;5.45;3.05;;;20.40;99.60;;;;;;4991170;28;20049;-81
2023/08/12 12:05:37;;;;;;;5.78;3.90;;;20.40;99.60;;;;;;4992940;28;20026;-81
2023/08/12 12:08:05;;;;;;;7.20;3.40;;;20.40;99.60;;;;;;4992726;28;20030;-83
2023/08/12 12:10:33;;;;;;;12.80;3.00;;;20.50;99.90;;;;;;4993802;28;20030;-86
2023/08/12 12:13:00;;;;;;;4.97;3.13;;;21.40;99.90;;;;;;4993131;28;20395;-85
2023/08/12 12:15:25;;;;;;;6.53;4.13;;;21.80;99.90;;;;;;4993090;28;20066;-86
2023/08/12 12:17:51;;;;;;;4.85;3.15;;;22.00;99.90;;;;;;5000444;28;20022;-86
2023/08/12 12:20:18;;;;;;;20.95;3.47;;;22.20;99.50;;;;;;4992665;28;20389;-85
2023/08/12 12:22:45;;;;;;;3.65;2.72;;;22.30;98.90;;;;;;4994261;28;20626;-86
2023/08/12 12:25:12;;;;;;;3.13;2.75;;;22.20;99.50;;;;;;4992993;28;20077;-86
2023/08/12 12:27:39;;;;;;;14.25;2.10;;;22.10;99.60;;;;;;4991964;28;20049;-88
2023/08/12 12:30:12;;;;;;;2.92;2.30;;;22.10;99.20;;;;;;4992627;28;20033;-86
2023/08/12 12:32:38;;;;;;;3.17;2.40;;;22.20;97.70;;;;;;4992289;28;20081;-84
2023/08/12 12:35:07;;;;;;;5.35;3.00;;;22.30;96.90;;;;;;4993093;28;20030;-87
2023/08/12 12:37:32;;;;;;;6.70;4.00;;;22.40;96.80;;;;;;4993016;28;20030;-88
2023/08/12 12:39:58;;;;;;;4.93;2.63;;;22.40;97.30;;;;;;5008563;28;20027;-86
2023/08/12 12:42:24;;;;;;;13.25;3.38;;;22.30;97.20;;;;;;4994321;28;20042;-85
2023/08/12 12:44:50;;;;;;;5.47;3.13;;;22.30;97.70;;;;;;4993028;28;20014;-87